createdAt,value
2023-02-17T00:01:24.131Z,82.23
2023-02-17T00:03:52.378Z,82.90
2023-02-17T00:06:20.990Z,82.16
2023-02-17T00:08:48.382Z,81.81
2023-02-17T00:11:16.034Z,75.53
2023-02-17T00:13:43.558Z,75.06
2023-02-17T00:16:16.595Z,74.13
2023-02-17T00:18:44.153Z,72.44
2023-02-17T00:21:12.369Z,69.88
2023-02-17T00:23:39.508Z,63.82
2023-02-17T00:26:07.653Z,60.01
2023-02-17T00:28:34.998Z,59.99
2023-02-17T00:31:13.279Z,65.49
2023-02-17T00:33:40.810Z,68.88
2023-02-17T00:36:09.380Z,72.51
2023-02-17T00:38:37.317Z,70.42
2023-02-17T00:41:04.965Z,71.58
2023-02-17T00:43:32.248Z,65.92
2023-02-17T00:45:59.525Z,75.42
2023-02-17T00:48:27.087Z,69.35
2023-02-17T00:50:54.253Z,56.77
2023-02-17T00:53:21.583Z,54.59
2023-02-17T00:55:50.313Z,55.81
2023-02-17T00:58:17.545Z,55.06
2023-02-17T01:00:44.848Z,53.88
2023-02-17T01:03:12.734Z,58.63
2023-02-17T01:05:46.288Z,61.10
2023-02-17T01:08:15.802Z,59.59
2023-02-17T01:10:43.809Z,62.69
2023-02-17T01:13:11.436Z,69.44
2023-02-17T01:15:39.534Z,71.74
2023-02-17T01:18:06.668Z,74.34
2023-02-17T01:20:37.478Z,73.46
2023-02-17T01:23:06.557Z,76.67
2023-02-17T01:25:37.006Z,77.14
2023-02-17T01:28:04.895Z,74.94
2023-02-17T01:30:32.167Z,75.40
2023-02-17T01:32:59.369Z,71.92
2023-02-17T01:35:26.855Z,72.87
2023-02-17T01:37:54.091Z,71.37
2023-02-17T01:40:23.129Z,68.85
2023-02-17T01:42:50.672Z,69.01
2023-02-17T01:45:17.877Z,67.50
2023-02-17T01:47:45.019Z,70.98
2023-02-17T01:50:13.556Z,72.22
2023-02-17T01:52:41.230Z,74.57
2023-02-17T01:55:08.802Z,72.58
2023-02-17T01:57:37.454Z,71.05
2023-02-17T02:00:05.326Z,71.55
2023-02-17T02:02:39.605Z,71.71
2023-02-17T02:05:07.139Z,66.51
2023-02-17T02:07:38.970Z,64.14
2023-02-17T02:10:07.041Z,58.32
2023-02-17T02:12:36.669Z,56.57
2023-02-17T02:15:05.824Z,56.32
2023-02-17T02:17:33.031Z,53.51
2023-02-17T02:20:06.318Z,61.80
2023-02-17T02:22:48.877Z,72.57
2023-02-17T02:25:16.011Z,71.76
2023-02-17T02:28:02.909Z,71.07
2023-02-17T02:30:42.631Z,72.70
2023-02-17T02:33:21.987Z,76.56
2023-02-17T02:35:56.910Z,72.35
2023-02-17T02:38:26.335Z,67.62
2023-02-17T02:40:54.719Z,62.11
2023-02-17T02:43:22.948Z,55.30
2023-02-17T02:45:50.690Z,52.08
2023-02-17T02:48:17.912Z,55.59
2023-02-17T02:50:48.372Z,69.34
2023-02-17T02:53:34.773Z,73.61
2023-02-17T02:56:14.936Z,73.34
2023-02-17T02:58:45.501Z,74.64
2023-02-17T03:01:15.998Z,76.06
2023-02-17T03:03:46.305Z,76.19
2023-02-17T03:06:20.669Z,76.55
2023-02-17T03:08:48.139Z,74.29
2023-02-17T03:11:16.090Z,73.81
2023-02-17T03:13:43.268Z,73.60
2023-02-17T03:16:14.540Z,71.95
2023-02-17T03:18:41.840Z,76.28
2023-02-17T03:21:14.116Z,78.03
2023-02-17T03:23:42.084Z,76.89
2023-02-17T03:26:09.268Z,75.43
2023-02-17T03:28:36.509Z,76.30
2023-02-17T03:31:04.133Z,74.23
2023-02-17T03:33:31.343Z,74.58
2023-02-17T03:35:58.465Z,75.32
2023-02-17T03:38:25.922Z,77.63
2023-02-17T03:40:53.792Z,78.08
2023-02-17T03:43:20.983Z,78.96
2023-02-17T03:45:48.451Z,75.80
2023-02-17T03:48:15.626Z,77.30
2023-02-17T03:50:42.778Z,77.46
2023-02-17T03:53:11.025Z,76.75
2023-02-17T03:55:38.246Z,74.88
2023-02-17T03:58:05.450Z,77.10
2023-02-17T04:00:33.056Z,76.50
2023-02-17T04:03:00.634Z,76.30
2023-02-17T04:05:27.810Z,76.49
2023-02-17T04:07:54.965Z,77.67
2023-02-17T04:10:22.434Z,78.64
2023-02-17T04:12:49.595Z,80.35
2023-02-17T04:15:16.786Z,80.87
2023-02-17T04:17:44.366Z,79.92
2023-02-17T04:20:11.961Z,79.93
2023-02-17T04:22:39.104Z,78.07
2023-02-17T04:25:06.554Z,75.41
2023-02-17T04:27:33.717Z,74.69
2023-02-17T04:30:00.957Z,74.48
2023-02-17T04:32:28.460Z,74.47
2023-02-17T04:34:55.618Z,75.20
2023-02-17T04:37:22.810Z,75.80
2023-02-17T04:39:50.312Z,76.24
2023-02-17T04:42:17.494Z,76.13
2023-02-17T04:44:44.639Z,76.08
2023-02-17T04:47:12.265Z,77.54
2023-02-17T04:49:39.452Z,77.29
2023-02-17T04:52:06.620Z,76.18
2023-02-17T04:54:34.088Z,76.29
2023-02-17T04:57:01.953Z,76.51
2023-02-17T04:59:29.143Z,75.36
2023-02-17T05:01:56.626Z,75.30
2023-02-17T05:04:23.827Z,76.31
2023-02-17T05:06:51.056Z,76.01
2023-02-17T05:09:18.489Z,75.49
2023-02-17T05:11:45.630Z,76.28
2023-02-17T05:14:12.795Z,76.42
2023-02-17T05:16:40.224Z,76.21
2023-02-17T05:19:07.516Z,77.32
2023-02-17T05:21:34.721Z,76.51
2023-02-17T05:24:02.236Z,74.88
2023-02-17T05:26:29.574Z,72.56
2023-02-17T05:28:56.783Z,71.40
2023-02-17T05:31:24.369Z,71.26
2023-02-17T05:33:53.287Z,70.19
2023-02-17T05:36:20.745Z,71.52
2023-02-17T05:38:49.967Z,71.68
2023-02-17T05:41:17.253Z,72.54
2023-02-17T05:43:44.436Z,71.33
2023-02-17T05:46:12.028Z,72.21
2023-02-17T05:48:39.210Z,75.12
2023-02-17T05:51:06.400Z,74.75
2023-02-17T05:53:33.869Z,73.83
2023-02-17T05:56:01.050Z,73.34
2023-02-17T05:58:28.314Z,73.22
2023-02-17T06:00:55.754Z,72.13
2023-02-17T06:03:23.202Z,73.79
2023-02-17T06:05:50.398Z,73.26
2023-02-17T06:08:17.558Z,70.47
2023-02-17T06:10:45.036Z,70.82
2023-02-17T06:13:12.201Z,71.58
2023-02-17T06:15:39.421Z,73.44
2023-02-17T06:18:06.917Z,75.15
2023-02-17T06:20:34.201Z,73.61
2023-02-17T06:23:01.536Z,73.93
2023-02-17T06:25:29.006Z,62.00
2023-02-17T06:27:56.155Z,56.90
2023-02-17T06:30:24.118Z,54.93
2023-02-17T06:32:51.910Z,55.40
2023-02-17T06:35:19.047Z,57.19
2023-02-17T06:37:46.290Z,56.71
2023-02-17T06:40:13.948Z,58.46
2023-02-17T06:42:41.250Z,66.43
2023-02-17T06:45:08.770Z,68.20
2023-02-17T06:47:36.200Z,68.76
2023-02-17T06:50:03.698Z,70.51
2023-02-17T06:52:31.007Z,71.61
2023-02-17T06:54:58.442Z,69.40
2023-02-17T06:57:25.655Z,69.51
2023-02-17T06:59:53.014Z,71.00
2023-02-17T07:02:20.845Z,70.87
2023-02-17T07:04:48.429Z,71.43
2023-02-17T07:07:15.835Z,70.50
2023-02-17T07:09:43.653Z,70.69
2023-02-17T07:12:11.128Z,70.61
2023-02-17T07:14:38.546Z,71.25
2023-02-17T07:17:06.339Z,69.24
2023-02-17T07:19:33.850Z,70.29
2023-02-17T07:22:02.501Z,68.42
2023-02-17T07:24:30.301Z,67.13
2023-02-17T07:26:57.946Z,68.78
2023-02-17T07:29:25.333Z,67.01
2023-02-17T07:31:53.101Z,66.68
2023-02-17T07:34:22.283Z,66.02
2023-02-17T07:36:49.768Z,65.49
2023-02-17T07:39:17.293Z,63.39
2023-02-17T07:41:44.749Z,60.81
2023-02-17T07:44:12.217Z,61.14
2023-02-17T07:46:39.927Z,62.47
2023-02-17T07:49:07.372Z,62.25
2023-02-17T07:51:35.162Z,61.65
2023-02-17T07:54:02.932Z,61.37
2023-02-17T07:56:30.172Z,60.62
2023-02-17T07:58:57.463Z,59.94
2023-02-17T08:01:25.674Z,57.46
2023-02-17T08:03:53.430Z,57.62
2023-02-17T08:06:23.302Z,55.35
2023-02-17T08:09:11.052Z,56.35
2023-02-17T08:11:58.382Z,57.69
2023-02-17T08:14:26.464Z,59.80
2023-02-17T08:16:54.671Z,61.80
2023-02-17T08:19:22.586Z,59.81
2023-02-17T08:21:50.093Z,56.33
2023-02-17T08:24:19.761Z,51.41
2023-02-17T08:26:48.484Z,46.82
2023-02-17T08:29:16.085Z,45.81
2023-02-17T08:31:43.905Z,44.02
2023-02-17T08:34:11.698Z,47.48
2023-02-17T08:36:39.277Z,48.95
2023-02-17T08:39:07.696Z,46.08
2023-02-17T08:41:36.056Z,45.22
2023-02-17T08:44:06.330Z,45.62
2023-02-17T08:46:36.673Z,45.99
2023-02-17T08:49:04.331Z,44.26
2023-02-17T08:51:31.903Z,42.87
2023-02-17T08:54:00.623Z,38.66
2023-02-17T08:56:28.000Z,39.11
2023-02-17T08:58:55.431Z,40.04
2023-02-17T09:01:23.352Z,40.09
2023-02-17T09:03:52.999Z,42.24
2023-02-17T09:06:21.445Z,39.92
2023-02-17T09:08:49.183Z,35.60
2023-02-17T09:11:17.330Z,42.24
2023-02-17T09:13:44.656Z,43.11
2023-02-17T09:16:12.467Z,42.18
2023-02-17T09:18:39.807Z,38.94
2023-02-17T09:21:08.059Z,45.23
2023-02-17T09:23:35.650Z,40.76
2023-02-17T09:26:12.517Z,42.36
2023-02-17T09:28:40.182Z,45.05
2023-02-17T09:31:23.936Z,45.62
2023-02-17T09:33:51.722Z,44.13
2023-02-17T09:36:20.160Z,40.24
2023-02-17T09:38:47.622Z,37.02
2023-02-17T09:41:17.429Z,38.16
2023-02-17T09:43:44.773Z,35.40
2023-02-17T09:46:17.352Z,39.11
2023-02-17T09:48:44.909Z,38.81
2023-02-17T09:51:15.348Z,36.74
2023-02-17T09:53:52.632Z,38.79
2023-02-17T09:56:24.638Z,37.82
2023-02-17T09:58:53.365Z,38.59
2023-02-17T10:01:25.970Z,39.46
2023-02-17T10:03:54.624Z,42.56
2023-02-17T10:06:23.466Z,39.78
2023-02-17T10:08:53.862Z,39.45
2023-02-17T10:11:34.700Z,40.00
2023-02-17T10:14:09.419Z,38.93
2023-02-17T10:16:57.714Z,39.08
2023-02-17T10:19:34.793Z,39.97
2023-02-17T10:22:13.477Z,40.98
2023-02-17T10:24:40.990Z,41.46
2023-02-17T10:27:23.945Z,38.44
2023-02-17T10:29:53.966Z,43.53
2023-02-17T10:32:23.094Z,39.25
2023-02-17T10:34:58.414Z,36.83
2023-02-17T10:37:38.473Z,40.61
2023-02-17T10:40:28.428Z,36.84
2023-02-17T10:42:57.300Z,35.81
2023-02-17T10:45:33.558Z,38.29
2023-02-17T10:48:13.766Z,39.73
2023-02-17T10:50:44.770Z,35.35
2023-02-17T10:53:17.579Z,36.54
2023-02-17T10:56:05.440Z,37.86
2023-02-17T10:58:45.240Z,35.08
2023-02-17T11:01:13.001Z,37.92
2023-02-17T11:03:41.427Z,36.01
2023-02-17T11:06:14.937Z,36.63
2023-02-17T11:08:45.278Z,35.46
2023-02-17T11:11:19.605Z,32.78
2023-02-17T11:14:06.032Z,35.04
2023-02-17T11:16:37.268Z,34.94
2023-02-17T11:19:06.548Z,35.38
2023-02-17T11:21:34.150Z,33.83
2023-02-17T11:24:05.141Z,34.40
2023-02-17T11:26:35.193Z,35.29
2023-02-17T11:29:18.966Z,38.13
2023-02-17T11:31:55.697Z,38.94
2023-02-17T11:34:24.760Z,38.25
2023-02-17T11:37:01.408Z,35.10
2023-02-17T11:39:29.055Z,33.16
2023-02-17T11:41:57.725Z,38.16
2023-02-17T11:44:26.986Z,38.14
2023-02-17T11:47:13.330Z,42.77
2023-02-17T11:49:59.138Z,44.12
2023-02-17T11:52:38.966Z,44.68
2023-02-17T11:55:18.427Z,46.57
2023-02-17T11:58:21.266Z,48.05
2023-02-17T12:01:07.432Z,48.41
2023-02-17T12:03:58.390Z,51.03
2023-02-17T12:06:35.067Z,51.92
2023-02-17T12:09:03.956Z,51.53
2023-02-17T12:11:32.231Z,50.15
2023-02-17T12:14:13.122Z,49.56
2023-02-17T12:16:43.760Z,48.83
2023-02-17T12:19:17.163Z,51.11
2023-02-17T12:22:20.177Z,52.39
2023-02-17T12:24:51.646Z,50.02
2023-02-17T12:27:28.833Z,46.68
2023-02-17T12:30:00.524Z,48.57
2023-02-17T12:32:34.402Z,49.35
2023-02-17T12:35:04.842Z,46.60
2023-02-17T12:37:33.054Z,47.74
2023-02-17T12:40:04.557Z,52.65
2023-02-17T12:42:42.662Z,51.23
2023-02-17T12:45:12.964Z,53.41
2023-02-17T12:47:49.491Z,52.36
2023-02-17T12:50:25.001Z,53.46
2023-02-17T12:52:53.914Z,51.23
2023-02-17T12:55:22.520Z,51.08
2023-02-17T12:57:57.098Z,55.12
2023-02-17T13:00:29.570Z,54.95
2023-02-17T13:03:00.078Z,54.41
2023-02-17T13:05:33.466Z,53.61
2023-02-17T13:08:01.786Z,53.94
2023-02-17T13:10:31.234Z,55.98
2023-02-17T13:13:02.837Z,56.31
2023-02-17T13:15:36.835Z,57.09
2023-02-17T13:18:05.523Z,53.48
2023-02-17T13:20:45.934Z,56.81
2023-02-17T13:23:14.020Z,57.64
2023-02-17T13:25:41.657Z,55.25
2023-02-17T13:28:19.924Z,57.86
2023-02-17T13:30:52.216Z,58.45
2023-02-17T13:33:22.841Z,57.19
2023-02-17T13:35:50.913Z,58.12
2023-02-17T13:38:28.671Z,55.17
2023-02-17T13:41:00.905Z,54.85
2023-02-17T13:43:29.016Z,55.95
2023-02-17T13:46:00.129Z,54.13
2023-02-17T13:48:28.619Z,54.56
2023-02-17T13:50:57.223Z,51.92
2023-02-17T13:53:29.548Z,49.62
2023-02-17T13:56:00.742Z,49.15
2023-02-17T13:58:30.266Z,50.04
2023-02-17T14:00:58.557Z,50.16
2023-02-17T14:03:27.430Z,53.33
2023-02-17T14:05:56.189Z,51.05
2023-02-17T14:08:29.631Z,51.41
2023-02-17T14:10:57.320Z,49.88
2023-02-17T14:13:25.092Z,52.61
2023-02-17T14:15:56.560Z,53.62
2023-02-17T14:18:34.818Z,51.63
2023-02-17T14:21:13.382Z,51.41
2023-02-17T14:23:52.490Z,52.03
2023-02-17T14:26:39.290Z,52.05
2023-02-17T14:29:10.997Z,51.63
2023-02-17T14:31:38.748Z,56.25
2023-02-17T14:34:06.640Z,59.05
2023-02-17T14:36:36.643Z,58.48
2023-02-17T14:39:05.385Z,57.37
2023-02-17T14:41:32.764Z,56.94
2023-02-17T14:44:00.954Z,58.14
2023-02-17T14:46:28.463Z,54.68
2023-02-17T14:48:56.026Z,55.41
2023-02-17T14:51:26.513Z,55.21
2023-02-17T14:53:54.679Z,53.10
2023-02-17T14:56:24.540Z,51.49
2023-02-17T14:58:55.043Z,50.53
2023-02-17T15:01:23.498Z,48.43
2023-02-17T15:03:51.462Z,46.92
2023-02-17T15:06:30.215Z,47.10
2023-02-17T15:09:00.744Z,47.25
2023-02-17T15:11:37.501Z,47.93
2023-02-17T15:14:05.929Z,48.00
2023-02-17T15:16:34.376Z,47.64
2023-02-17T15:19:02.101Z,48.71
2023-02-17T15:21:35.069Z,47.37
2023-02-17T15:24:04.789Z,49.08
2023-02-17T15:26:32.356Z,45.17
2023-02-17T15:29:00.160Z,45.23
2023-02-17T15:31:29.994Z,45.03
2023-02-17T15:34:00.481Z,40.25
2023-02-17T15:36:28.689Z,42.69
2023-02-17T15:38:57.100Z,41.79
2023-02-17T15:41:27.125Z,45.02
2023-02-17T15:43:56.034Z,45.76
2023-02-17T15:46:30.457Z,44.40
2023-02-17T15:49:00.214Z,45.44
2023-02-17T15:51:28.342Z,42.72
2023-02-17T15:53:56.596Z,40.44
2023-02-17T15:56:27.820Z,40.60
2023-02-17T15:58:56.203Z,41.85
2023-02-17T16:01:29.569Z,41.61
2023-02-17T16:03:57.715Z,41.01
2023-02-17T16:06:26.864Z,49.71
2023-02-17T16:08:58.834Z,50.23
2023-02-17T16:11:26.885Z,48.01
2023-02-17T16:13:56.990Z,51.60
2023-02-17T16:16:26.134Z,51.38
2023-02-17T16:18:53.603Z,54.74
2023-02-17T16:21:21.058Z,51.38
2023-02-17T16:23:48.319Z,50.43
2023-02-17T16:26:22.667Z,48.53
2023-02-17T16:28:50.188Z,45.70
2023-02-17T16:31:18.828Z,45.45
2023-02-17T16:33:46.761Z,46.93
2023-02-17T16:36:15.544Z,46.98
2023-02-17T16:38:44.636Z,45.50
2023-02-17T16:41:16.844Z,45.44
2023-02-17T16:43:46.719Z,45.38
2023-02-17T16:46:36.547Z,45.16
2023-02-17T16:49:21.139Z,46.98
2023-02-17T16:51:49.970Z,47.37
2023-02-17T16:54:17.715Z,47.33
2023-02-17T16:56:49.347Z,49.60
2023-02-17T16:59:20.344Z,52.51
2023-02-17T17:01:51.811Z,53.30
2023-02-17T17:04:20.109Z,53.75
2023-02-17T17:06:49.637Z,55.40
2023-02-17T17:09:18.438Z,58.97
2023-02-17T17:11:46.129Z,59.11
2023-02-17T17:14:14.080Z,55.61
2023-02-17T17:16:45.886Z,51.30
2023-02-17T17:19:14.303Z,50.46
2023-02-17T17:21:42.120Z,52.59
2023-02-17T17:24:11.174Z,50.53
2023-02-17T17:26:47.358Z,49.38
2023-02-17T17:29:16.850Z,53.82
2023-02-17T17:31:45.648Z,53.49
2023-02-17T17:34:13.452Z,55.18
2023-02-17T17:36:42.999Z,55.16
2023-02-17T17:39:15.824Z,57.23
2023-02-17T17:41:44.027Z,57.05
2023-02-17T17:44:12.270Z,56.53
2023-02-17T17:46:40.387Z,57.00
2023-02-17T17:49:10.514Z,55.99
2023-02-17T17:51:40.363Z,56.20
2023-02-17T17:54:08.331Z,55.48
2023-02-17T17:56:39.295Z,57.62
2023-02-17T17:59:10.229Z,59.67
2023-02-17T18:01:38.248Z,59.51
2023-02-17T18:04:08.179Z,60.67
2023-02-17T18:06:38.562Z,59.95
2023-02-17T18:09:07.585Z,59.67
2023-02-17T18:11:37.494Z,58.84
2023-02-17T18:14:07.376Z,57.50
2023-02-17T18:16:37.994Z,54.71
2023-02-17T18:19:07.008Z,54.98
2023-02-17T18:21:35.869Z,55.17
2023-02-17T18:24:05.157Z,55.01
2023-02-17T18:26:32.794Z,55.09
2023-02-17T18:29:02.310Z,53.03
2023-02-17T18:31:30.661Z,51.89
2023-02-17T18:33:59.711Z,51.99
2023-02-17T18:36:28.156Z,52.88
2023-02-17T18:38:56.919Z,53.27
2023-02-17T18:41:32.483Z,58.42
2023-02-17T18:44:01.687Z,59.50
2023-02-17T18:46:30.311Z,60.45
2023-02-17T18:49:00.395Z,58.50
2023-02-17T18:51:29.238Z,58.27
2023-02-17T18:54:00.379Z,57.98
2023-02-17T18:56:30.482Z,59.88
2023-02-17T18:59:00.541Z,59.86
2023-02-17T19:01:30.359Z,57.63
2023-02-17T19:04:00.420Z,59.07
2023-02-17T19:06:29.777Z,55.92
2023-02-17T19:08:57.972Z,58.38
2023-02-17T19:11:26.292Z,57.82
2023-02-17T19:13:55.173Z,49.93
2023-02-17T19:16:28.327Z,58.31
2023-02-17T19:18:58.269Z,59.18
2023-02-17T19:21:26.853Z,59.62
2023-02-17T19:23:55.724Z,62.97
2023-02-17T19:26:24.532Z,64.74
2023-02-17T19:28:52.791Z,62.48
2023-02-17T19:31:20.880Z,65.32
2023-02-17T19:33:49.068Z,64.51
2023-02-17T19:36:18.691Z,63.12
2023-02-17T19:38:49.648Z,64.71
2023-02-17T19:41:18.041Z,68.97
2023-02-17T19:43:47.488Z,70.41
2023-02-17T19:46:26.097Z,68.98
2023-02-17T19:48:55.068Z,67.14
2023-02-17T19:51:24.904Z,68.51
2023-02-17T19:53:55.858Z,65.58
2023-02-17T19:56:24.955Z,57.94
2023-02-17T19:58:53.444Z,55.45
2023-02-17T20:01:30.356Z,53.44
2023-02-17T20:03:59.988Z,51.85
2023-02-17T20:06:30.128Z,52.96
2023-02-17T20:09:01.208Z,51.79
2023-02-17T20:11:31.998Z,51.35
2023-02-17T20:14:02.327Z,58.59
2023-02-17T20:16:30.507Z,62.19
2023-02-17T20:19:00.320Z,64.36
2023-02-17T20:21:31.881Z,61.40
2023-02-17T20:24:00.451Z,60.18
2023-02-17T20:26:33.840Z,63.72
2023-02-17T20:29:02.238Z,59.74
2023-02-17T20:31:31.010Z,57.43
2023-02-17T20:34:00.688Z,57.09
2023-02-17T20:36:28.798Z,60.81
2023-02-17T20:38:58.543Z,59.66
2023-02-17T20:41:27.852Z,54.57
2023-02-17T20:43:55.733Z,53.21
2023-02-17T20:46:25.160Z,54.12
2023-02-17T20:48:53.932Z,49.00
2023-02-17T20:51:22.662Z,48.40
2023-02-17T20:53:52.495Z,55.16
2023-02-17T20:56:22.427Z,51.11
2023-02-17T20:58:51.008Z,48.42
2023-02-17T21:01:20.027Z,50.11
2023-02-17T21:03:48.267Z,48.42
2023-02-17T21:06:20.957Z,53.84
2023-02-17T21:08:53.105Z,54.77
2023-02-17T21:11:20.907Z,57.60
2023-02-17T21:13:50.205Z,53.45
2023-02-17T21:16:20.604Z,53.96
2023-02-17T21:18:48.412Z,50.91
2023-02-17T21:21:17.076Z,50.52
2023-02-17T21:23:45.344Z,53.85
2023-02-17T21:26:13.254Z,57.95
2023-02-17T21:28:40.918Z,56.73
2023-02-17T21:31:09.556Z,50.54
2023-02-17T21:33:43.056Z,47.33
2023-02-17T21:36:12.750Z,46.49
2023-02-17T21:38:41.567Z,47.56
2023-02-17T21:41:13.891Z,45.03
2023-02-17T21:44:00.502Z,44.06
2023-02-17T21:46:30.207Z,46.37
2023-02-17T21:48:59.311Z,45.39
2023-02-17T21:51:27.205Z,49.57
2023-02-17T21:53:54.460Z,47.88
2023-02-17T21:56:22.717Z,47.55
2023-02-17T21:58:50.631Z,53.33
2023-02-17T22:01:19.288Z,52.00
2023-02-17T22:03:47.313Z,55.95
2023-02-17T22:06:15.917Z,58.36
2023-02-17T22:08:43.159Z,56.93
2023-02-17T22:11:17.752Z,50.01
2023-02-17T22:13:46.574Z,49.99
2023-02-17T22:16:14.374Z,49.70
2023-02-17T22:18:41.712Z,49.63
2023-02-17T22:21:10.125Z,52.94
2023-02-17T22:23:37.716Z,58.48
2023-02-17T22:26:08.666Z,60.81
2023-02-17T22:28:36.101Z,59.61
2023-02-17T22:31:03.994Z,58.23
2023-02-17T22:33:31.169Z,56.34
2023-02-17T22:35:59.111Z,56.06
2023-02-17T22:38:26.631Z,52.27
2023-02-17T22:40:53.818Z,50.52
2023-02-17T22:43:21.027Z,46.04
2023-02-17T22:45:48.641Z,44.59
2023-02-17T22:48:15.861Z,44.46
2023-02-17T22:50:43.055Z,45.34
2023-02-17T22:53:10.495Z,50.90
2023-02-17T22:55:38.554Z,53.76
2023-02-17T22:58:05.759Z,59.71
2023-02-17T23:00:33.254Z,60.48
2023-02-17T23:03:00.419Z,57.84
2023-02-17T23:05:27.597Z,58.00
2023-02-17T23:07:55.077Z,60.72
2023-02-17T23:10:22.180Z,61.52
2023-02-17T23:12:49.347Z,62.58
2023-02-17T23:15:16.789Z,62.32
2023-02-17T23:17:59.090Z,60.96
2023-02-17T23:20:26.664Z,64.17
2023-02-17T23:22:54.015Z,64.54
2023-02-17T23:25:21.201Z,63.50
2023-02-17T23:27:48.678Z,63.15
2023-02-17T23:30:19.937Z,63.86
2023-02-17T23:32:47.210Z,65.13
2023-02-17T23:35:14.928Z,65.61
2023-02-17T23:37:42.108Z,63.26
2023-02-17T23:40:09.745Z,65.62
2023-02-17T23:42:37.283Z,65.67
2023-02-17T23:45:04.762Z,64.91
2023-02-17T23:47:31.953Z,66.48
2023-02-17T23:49:59.408Z,64.95
2023-02-17T23:52:26.691Z,66.55
2023-02-17T23:54:54.081Z,61.64
2023-02-17T23:57:21.612Z,60.33
2023-02-17T23:59:48.961Z,65.06
